sensor_id;sensor_type;location;lat;lon;timestamp;pressure;altitude;pressure_sealevel;temperature;humidity
78573;BME280;67862;0.000;0.000;2023-09-30T00:02:09;99601.69;;;23.61;50.37
78573;BME280;67862;0.000;0.000;2023-09-30T00:04:36;99611.00;;;23.60;50.31
78573;BME280;67862;0.000;0.000;2023-09-30T00:07:01;99608.28;;;23.60;50.52
78573;BME280;67862;0.000;0.000;2023-09-30T00:09:27;99608.28;;;23.60;50.38
78573;BME280;67862;0.000;0.000;2023-09-30T00:11:52;99614.56;;;23.61;50.22
78573;BME280;67862;0.000;0.000;2023-09-30T00:14:20;99601.16;;;23.59;50.41
78573;BME280;67862;0.000;0.000;2023-09-30T00:16:45;99606.66;;;23.59;50.30
78573;BME280;67862;0.000;0.000;2023-09-30T00:19:10;99605.84;;;23.59;50.30
78573;BME280;67862;0.000;0.000;2023-09-30T00:21:36;99605.84;;;23.59;50.63
78573;BME280;67862;0.000;0.000;2023-09-30T00:24:01;99591.28;;;23.58;50.43
78573;BME280;67862;0.000;0.000;2023-09-30T00:26:27;99599.50;;;23.58;50.38
78573;BME280;67862;0.000;0.000;2023-09-30T00:28:52;99599.50;;;23.58;50.37
78573;BME280;67862;0.000;0.000;2023-09-30T00:31:18;99595.94;;;23.58;50.06
78573;BME280;67862;0.000;0.000;2023-09-30T00:33:43;99592.41;;;23.57;50.22
78573;BME280;67862;0.000;0.000;2023-09-30T00:36:09;99597.06;;;23.57;50.44
78573;BME280;67862;0.000;0.000;2023-09-30T00:38:35;99595.13;;;23.57;50.54
78573;BME280;67862;0.000;0.000;2023-09-30T00:41:00;99582.56;;;23.56;50.51
78573;BME280;67862;0.000;0.000;2023-09-30T00:43:25;99583.66;;;23.55;50.43
78573;BME280;67862;0.000;0.000;2023-09-30T00:46:35;99583.66;;;23.55;50.58
78573;BME280;67862;0.000;0.000;2023-09-30T00:48:40;99580.91;;;23.55;50.36
78573;BME280;67862;0.000;0.000;2023-09-30T00:51:05;99577.38;;;23.55;50.30
78573;BME280;67862;0.000;0.000;2023-09-30T00:53:31;99578.19;;;23.55;50.57
78573;BME280;67862;0.000;0.000;2023-09-30T00:55:57;99574.91;;;23.53;50.36
78573;BME280;67862;0.000;0.000;2023-09-30T00:58:25;99575.72;;;23.54;50.09
78573;BME280;67862;0.000;0.000;2023-09-30T01:00:53;99577.63;;;23.53;50.55
78573;BME280;67862;0.000;0.000;2023-09-30T01:03:20;99575.72;;;23.54;50.21
78573;BME280;67862;0.000;0.000;2023-09-30T01:05:46;99580.09;;;23.55;50.60
78573;BME280;67862;0.000;0.000;2023-09-30T01:08:14;99573.78;;;23.54;50.29
78573;BME280;67862;0.000;0.000;2023-09-30T01:10:39;99568.31;;;23.54;50.45
78573;BME280;67862;0.000;0.000;2023-09-30T01:13:05;99576.53;;;23.54;50.44
78573;BME280;67862;0.000;0.000;2023-09-30T01:15:30;99571.03;;;23.54;50.16
78573;BME280;67862;0.000;0.000;2023-09-30T01:17:55;99565.56;;;23.54;50.65
78573;BME280;67862;0.000;0.000;2023-09-30T01:20:21;99566.69;;;23.53;50.32
78573;BME280;67862;0.000;0.000;2023-09-30T01:22:47;99580.38;;;23.53;50.54
78573;BME280;67862;0.000;0.000;2023-09-30T01:25:13;99578.75;;;23.52;50.35
78573;BME280;67862;0.000;0.000;2023-09-30T01:27:38;99580.38;;;23.53;50.66
78573;BME280;67862;0.000;0.000;2023-09-30T01:30:04;99581.50;;;23.52;50.36
78573;BME280;67862;0.000;0.000;2023-09-30T01:32:29;99571.34;;;23.53;50.61
78573;BME280;67862;0.000;0.000;2023-09-30T01:34:54;99573.28;;;23.52;50.63
78573;BME280;67862;0.000;0.000;2023-09-30T01:37:20;99574.09;;;23.53;50.75
78573;BME280;67862;0.000;0.000;2023-09-30T01:39:45;99573.28;;;23.52;50.83
78573;BME280;67862;0.000;0.000;2023-09-30T01:42:11;99572.47;;;23.52;50.76
78573;BME280;67862;0.000;0.000;2023-09-30T01:44:36;99562.31;;;23.52;50.39
78573;BME280;67862;0.000;0.000;2023-09-30T01:47:01;99563.41;;;23.51;50.59
78573;BME280;67862;0.000;0.000;2023-09-30T01:49:27;99562.59;;;23.51;50.49
78573;BME280;67862;0.000;0.000;2023-09-30T01:51:52;99561.78;;;23.50;50.59
78573;BME280;67862;0.000;0.000;2023-09-30T01:54:18;99573.88;;;23.49;50.76
78573;BME280;67862;0.000;0.000;2023-09-30T01:56:43;99560.16;;;23.49;50.56
78573;BME280;67862;0.000;0.000;2023-09-30T01:59:08;99566.75;;;23.48;50.51
78573;BME280;67862;0.000;0.000;2023-09-30T02:01:34;99568.69;;;23.48;50.41
78573;BME280;67862;0.000;0.000;2023-09-30T02:03:59;99570.31;;;23.49;50.43
78573;BME280;67862;0.000;0.000;2023-09-30T02:06:24;99574.47;;;23.46;50.55
78573;BME280;67862;0.000;0.000;2023-09-30T02:08:50;99570.63;;;23.47;50.78
78573;BME280;67862;0.000;0.000;2023-09-30T02:11:16;99570.00;;;23.50;50.91
78573;BME280;67862;0.000;0.000;2023-09-30T02:13:41;99565.66;;;23.49;50.82
78573;BME280;67862;0.000;0.000;2023-09-30T02:16:12;99573.06;;;23.49;50.82
78573;BME280;67862;0.000;0.000;2023-09-30T02:18:38;99566.75;;;23.48;50.68
78573;BME280;67862;0.000;0.000;2023-09-30T02:21:06;99574.16;;;23.48;50.70
78573;BME280;67862;0.000;0.000;2023-09-30T02:23:31;99576.09;;;23.47;50.56
78573;BME280;67862;0.000;0.000;2023-09-30T02:25:56;99567.88;;;23.47;50.49
78573;BME280;67862;0.000;0.000;2023-09-30T02:28:22;99566.75;;;23.48;50.70
78573;BME280;67862;0.000;0.000;2023-09-30T02:30:47;99569.00;;;23.46;50.48
78573;BME280;67862;0.000;0.000;2023-09-30T02:33:13;99569.00;;;23.46;50.72
78573;BME280;67862;0.000;0.000;2023-09-30T02:35:43;99572.84;;;23.45;50.65
78573;BME280;67862;0.000;0.000;2023-09-30T02:38:08;99566.25;;;23.46;50.54
78573;BME280;67862;0.000;0.000;2023-09-30T02:40:33;99563.50;;;23.46;50.34
78573;BME280;67862;0.000;0.000;2023-09-30T02:42:59;99556.41;;;23.45;50.78
78573;BME280;67862;0.000;0.000;2023-09-30T02:45:24;99569.00;;;23.46;50.47
78573;BME280;67862;0.000;0.000;2023-09-30T02:47:50;99565.69;;;23.44;50.62
78573;BME280;67862;0.000;0.000;2023-09-30T02:50:15;99566.53;;;23.45;50.33
78573;BME280;67862;0.000;0.000;2023-09-30T02:52:40;99564.63;;;23.45;50.49
78573;BME280;67862;0.000;0.000;2023-09-30T02:55:09;99559.13;;;23.45;50.43
78573;BME280;67862;0.000;0.000;2023-09-30T02:57:35;99550.91;;;23.45;50.24
78573;BME280;67862;0.000;0.000;2023-09-30T03:00:09;99560.22;;;23.44;50.38
78573;BME280;67862;0.000;0.000;2023-09-30T03:02:54;99558.59;;;23.43;50.17
78573;BME280;67862;0.000;0.000;2023-09-30T03:05:19;99558.59;;;23.43;50.21
78573;BME280;67862;0.000;0.000;2023-09-30T03:07:45;99560.53;;;23.42;50.34
78573;BME280;67862;0.000;0.000;2023-09-30T03:10:11;99560.53;;;23.42;50.26
78573;BME280;67862;0.000;0.000;2023-09-30T03:12:39;99556.97;;;23.42;50.53
78573;BME280;67862;0.000;0.000;2023-09-30T03:15:04;99554.22;;;23.42;50.33
78573;BME280;67862;0.000;0.000;2023-09-30T03:17:33;99551.50;;;23.42;50.60
78573;BME280;67862;0.000;0.000;2023-09-30T03:19:58;99558.09;;;23.41;50.22
78573;BME280;67862;0.000;0.000;2023-09-30T03:22:25;99558.91;;;23.41;50.25
78573;BME280;67862;0.000;0.000;2023-09-30T03:24:54;99556.97;;;23.42;50.44
78573;BME280;67862;0.000;0.000;2023-09-30T03:27:19;99548.75;;;23.42;50.56
78573;BME280;67862;0.000;0.000;2023-09-30T03:29:45;99546.81;;;23.42;50.47
78573;BME280;67862;0.000;0.000;2023-09-30T03:32:11;99541.34;;;23.42;50.75
78573;BME280;67862;0.000;0.000;2023-09-30T03:34:36;99546.81;;;23.42;50.59
78573;BME280;67862;0.000;0.000;2023-09-30T03:37:01;99553.13;;;23.43;50.62
78573;BME280;67862;0.000;0.000;2023-09-30T03:39:27;99548.44;;;23.43;50.54
78573;BME280;67862;0.000;0.000;2023-09-30T03:41:55;99549.56;;;23.42;50.83
78573;BME280;67862;0.000;0.000;2023-09-30T03:44:24;99550.38;;;23.43;50.76
78573;BME280;67862;0.000;0.000;2023-09-30T03:46:50;99546.00;;;23.42;50.70
78573;BME280;67862;0.000;0.000;2023-09-30T03:49:16;99546.00;;;23.42;50.69
78573;BME280;67862;0.000;0.000;2023-09-30T03:51:41;99552.31;;;23.42;50.91
78573;BME280;67862;0.000;0.000;2023-09-30T03:54:07;99549.56;;;23.42;50.99
78573;BME280;67862;0.000;0.000;2023-09-30T03:56:33;99558.59;;;23.43;50.68
78573;BME280;67862;0.000;0.000;2023-09-30T03:58:59;99562.97;;;23.44;50.62
78573;BME280;67862;0.000;0.000;2023-09-30T04:01:24;99560.81;;;23.41;50.96
78573;BME280;67862;0.000;0.000;2023-09-30T04:03:51;99556.47;;;23.40;50.77
78573;BME280;67862;0.000;0.000;2023-09-30T04:06:19;99558.38;;;23.39;50.58
78573;BME280;67862;0.000;0.000;2023-09-30T04:08:45;99560.31;;;23.39;50.93
78573;BME280;67862;0.000;0.000;2023-09-30T04:11:10;99561.41;;;23.38;50.64
78573;BME280;67862;0.000;0.000;2023-09-30T04:13:41;99555.94;;;23.38;50.72
78573;BME280;67862;0.000;0.000;2023-09-30T04:16:07;99561.94;;;23.40;51.34
78573;BME280;67862;0.000;0.000;2023-09-30T04:18:32;99560.59;;;23.37;50.88
78573;BME280;67862;0.000;0.000;2023-09-30T04:20:57;99560.59;;;23.37;50.96
78573;BME280;67862;0.000;0.000;2023-09-30T04:23:23;99566.38;;;23.36;51.04
78573;BME280;67862;0.000;0.000;2023-09-30T04:25:48;99563.66;;;23.36;50.72
78573;BME280;67862;0.000;0.000;2023-09-30T04:28:15;99568.28;;;23.35;51.00
78573;BME280;67862;0.000;0.000;2023-09-30T04:30:41;99563.09;;;23.34;50.68
78573;BME280;67862;0.000;0.000;2023-09-30T04:33:06;99569.69;;;23.33;51.03
78573;BME280;67862;0.000;0.000;2023-09-30T04:35:33;99579.03;;;23.32;51.11
78573;BME280;67862;0.000;0.000;2023-09-30T04:38:00;99579.03;;;23.32;51.10
78573;BME280;67862;0.000;0.000;2023-09-30T04:40:29;99575.47;;;23.31;51.01
78573;BME280;67862;0.000;0.000;2023-09-30T04:42:54;99584.19;;;23.33;50.69
78573;BME280;67862;0.000;0.000;2023-09-30T04:45:23;99583.91;;;23.35;51.21
78573;BME280;67862;0.000;0.000;2023-09-30T04:47:49;99593.78;;;23.36;51.33
78573;BME280;67862;0.000;0.000;2023-09-30T04:50:18;99589.38;;;23.35;50.95
78573;BME280;67862;0.000;0.000;2023-09-30T04:52:46;99596.53;;;23.36;50.98
78573;BME280;67862;0.000;0.000;2023-09-30T04:55:12;99597.91;;;23.33;51.22
78573;BME280;67862;0.000;0.000;2023-09-30T04:57:41;99589.38;;;23.35;51.45
78573;BME280;67862;0.000;0.000;2023-09-30T05:00:10;99586.66;;;23.35;51.26
78573;BME280;67862;0.000;0.000;2023-09-30T05:02:36;99587.75;;;23.34;51.51
78573;BME280;67862;0.000;0.000;2023-09-30T05:05:02;99586.13;;;23.33;51.72
78573;BME280;67862;0.000;0.000;2023-09-30T05:07:30;99589.97;;;23.32;51.68
78573;BME280;67862;0.000;0.000;2023-09-30T05:09:56;99589.97;;;23.32;51.68
78573;BME280;67862;0.000;0.000;2023-09-30T05:12:21;99585.91;;;23.29;51.45
78573;BME280;67862;0.000;0.000;2023-09-30T05:14:47;99587.84;;;23.29;51.91
78573;BME280;67862;0.000;0.000;2023-09-30T05:17:13;99592.19;;;23.30;51.52
78573;BME280;67862;0.000;0.000;2023-09-30T05:19:38;99594.94;;;23.30;51.87
78573;BME280;67862;0.000;0.000;2023-09-30T05:22:04;99597.69;;;23.30;52.09
78573;BME280;67862;0.000;0.000;2023-09-30T05:24:30;99599.91;;;23.28;51.84
78573;BME280;67862;0.000;0.000;2023-09-30T05:26:58;99605.69;;;23.26;51.62
78573;BME280;67862;0.000;0.000;2023-09-30T05:29:24;99605.94;;;23.25;51.62
78573;BME280;67862;0.000;0.000;2023-09-30T05:31:49;99602.09;;;23.26;51.65
78573;BME280;67862;0.000;0.000;2023-09-30T05:34:15;99609.22;;;23.27;51.48
78573;BME280;67862;0.000;0.000;2023-09-30T05:36:40;99608.13;;;23.28;51.98
78573;BME280;67862;0.000;0.000;2023-09-30T05:41:36;99605.09;;;23.29;51.81
78573;BME280;67862;0.000;0.000;2023-09-30T05:44:16;99618.47;;;23.31;51.84
78573;BME280;67862;0.000;0.000;2023-09-30T05:46:41;99617.38;;;23.32;51.74
78573;BME280;67862;0.000;0.000;2023-09-30T05:49:08;99611.59;;;23.33;52.05
78573;BME280;67862;0.000;0.000;2023-09-30T05:51:43;99610.50;;;23.34;51.99
78573;BME280;67862;0.000;0.000;2023-09-30T05:54:12;99612.41;;;23.34;52.24
78573;BME280;67862;0.000;0.000;2023-09-30T05:56:38;99606.94;;;23.34;52.48
78573;BME280;67862;0.000;0.000;2023-09-30T05:59:10;99605.00;;;23.34;52.11
78573;BME280;67862;0.000;0.000;2023-09-30T06:01:36;99612.13;;;23.35;52.53
78573;BME280;67862;0.000;0.000;2023-09-30T06:04:02;99611.59;;;23.33;52.35
78573;BME280;67862;0.000;0.000;2023-09-30T06:06:28;99611.31;;;23.35;52.58
78573;BME280;67862;0.000;0.000;2023-09-30T06:08:55;99611.31;;;23.35;52.36
78573;BME280;67862;0.000;0.000;2023-09-30T06:11:23;99616.78;;;23.35;52.34
78573;BME280;67862;0.000;0.000;2023-09-30T06:13:55;99617.59;;;23.35;52.77
78573;BME280;67862;0.000;0.000;2023-09-30T06:16:24;99620.34;;;23.35;52.86
78573;BME280;67862;0.000;0.000;2023-09-30T06:18:51;99630.22;;;23.36;52.85
78573;BME280;67862;0.000;0.000;2023-09-30T06:21:17;99620.06;;;23.37;52.47
78573;BME280;67862;0.000;0.000;2023-09-30T06:23:46;99619.25;;;23.36;52.52
78573;BME280;67862;0.000;0.000;2023-09-30T06:26:12;99619.25;;;23.36;52.56
78573;BME280;67862;0.000;0.000;2023-09-30T06:28:42;99623.06;;;23.35;52.93
78573;BME280;67862;0.000;0.000;2023-09-30T06:31:07;99614.59;;;23.37;52.93
78573;BME280;67862;0.000;0.000;2023-09-30T06:33:33;99612.97;;;23.36;52.77
78573;BME280;67862;0.000;0.000;2023-09-30T06:35:59;99620.06;;;23.37;52.80
78573;BME280;67862;0.000;0.000;2023-09-30T06:38:29;99622.00;;;23.36;53.08
78573;BME280;67862;0.000;0.000;2023-09-30T06:40:54;99623.91;;;23.36;52.98
78573;BME280;67862;0.000;0.000;2023-09-30T06:46:35;99629.41;;;23.36;53.13
78573;BME280;67862;0.000;0.000;2023-09-30T06:49:00;99631.84;;;23.37;52.81
78573;BME280;67862;0.000;0.000;2023-09-30T06:51:26;99630.22;;;23.36;53.20
78573;BME280;67862;0.000;0.000;2023-09-30T06:53:54;99631.03;;;23.37;52.83
78573;BME280;67862;0.000;0.000;2023-09-30T06:56:20;99631.03;;;23.37;52.84
78573;BME280;67862;0.000;0.000;2023-09-30T06:58:48;99635.69;;;23.36;52.73
78573;BME280;67862;0.000;0.000;2023-09-30T07:01:16;99630.22;;;23.36;53.21
78573;BME280;67862;0.000;0.000;2023-09-30T07:03:42;99633.75;;;23.37;53.02
78573;BME280;67862;0.000;0.000;2023-09-30T07:06:08;99636.50;;;23.37;52.70
78573;BME280;67862;0.000;0.000;2023-09-30T07:08:33;99639.25;;;23.37;52.98
78573;BME280;67862;0.000;0.000;2023-09-30T07:10:58;99640.88;;;23.38;52.76
78573;BME280;67862;0.000;0.000;2023-09-30T07:13:25;99625.53;;;23.37;53.21
78573;BME280;67862;0.000;0.000;2023-09-30T07:15:50;99637.31;;;23.37;53.20
78573;BME280;67862;0.000;0.000;2023-09-30T07:18:16;99640.06;;;23.37;53.25
78573;BME280;67862;0.000;0.000;2023-09-30T07:20:41;99637.31;;;23.37;53.14
78573;BME280;67862;0.000;0.000;2023-09-30T07:23:06;99645.53;;;23.37;52.81
78573;BME280;67862;0.000;0.000;2023-09-30T07:25:34;99649.09;;;23.38;53.25
78573;BME280;67862;0.000;0.000;2023-09-30T07:28:35;99647.47;;;23.37;52.83
78573;BME280;67862;0.000;0.000;2023-09-30T07:31:00;99651.00;;;23.37;52.85
78573;BME280;67862;0.000;0.000;2023-09-30T07:33:29;99646.34;;;23.38;52.90
78573;BME280;67862;0.000;0.000;2023-09-30T07:35:55;99649.09;;;23.38;53.09
78573;BME280;67862;0.000;0.000;2023-09-30T07:38:21;99649.09;;;23.38;52.83
78573;BME280;67862;0.000;0.000;2023-09-30T07:40:56;99652.66;;;23.38;52.80
78573;BME280;67862;0.000;0.000;2023-09-30T07:43:21;99661.69;;;23.39;52.77
78573;BME280;67862;0.000;0.000;2023-09-30T07:45:50;99656.19;;;23.39;52.59
78573;BME280;67862;0.000;0.000;2023-09-30T07:48:17;99660.06;;;23.38;52.73
78573;BME280;67862;0.000;0.000;2023-09-30T07:50:43;99661.69;;;23.39;52.77
78573;BME280;67862;0.000;0.000;2023-09-30T07:53:08;99663.59;;;23.38;52.83
78573;BME280;67862;0.000;0.000;2023-09-30T07:55:51;99661.69;;;23.39;52.81
78573;BME280;67862;0.000;0.000;2023-09-30T07:58:32;99665.22;;;23.39;52.78
78573;BME280;67862;0.000;0.000;2023-09-30T08:00:58;99665.22;;;23.39;52.63
78573;BME280;67862;0.000;0.000;2023-09-30T08:03:29;99672.63;;;23.39;52.61
78573;BME280;67862;0.000;0.000;2023-09-30T08:05:56;99666.03;;;23.40;52.46
78573;BME280;67862;0.000;0.000;2023-09-30T08:08:23;99669.91;;;23.39;52.54
78573;BME280;67862;0.000;0.000;2023-09-30T08:10:49;99668.78;;;23.40;52.49
78573;BME280;67862;0.000;0.000;2023-09-30T08:13:18;99675.38;;;23.39;52.66
78573;BME280;67862;0.000;0.000;2023-09-30T08:15:43;99672.34;;;23.40;52.31
78573;BME280;67862;0.000;0.000;2023-09-30T08:18:08;99671.53;;;23.40;52.64
78573;BME280;67862;0.000;0.000;2023-09-30T08:20:34;99685.75;;;23.42;52.49
78573;BME280;67862;0.000;0.000;2023-09-30T08:23:00;99676.72;;;23.41;52.40
78573;BME280;67862;0.000;0.000;2023-09-30T08:25:26;99676.72;;;23.41;52.48
78573;BME280;67862;0.000;0.000;2023-09-30T08:27:52;99675.09;;;23.40;51.81
78573;BME280;67862;0.000;0.000;2023-09-30T08:30:18;99681.97;;;23.38;51.83
78573;BME280;67862;0.000;0.000;2023-09-30T08:32:44;99670.19;;;23.37;51.77
78573;BME280;67862;0.000;0.000;2023-09-30T08:35:12;99676.78;;;23.36;51.27
78573;BME280;67862;0.000;0.000;2023-09-30T08:37:39;99676.78;;;23.36;51.61
78573;BME280;67862;0.000;0.000;2023-09-30T08:40:05;99670.50;;;23.36;51.56
78573;BME280;67862;0.000;0.000;2023-09-30T08:42:32;99673.22;;;23.36;51.09
78573;BME280;67862;0.000;0.000;2023-09-30T08:44:58;99659.78;;;23.34;51.25
78573;BME280;67862;0.000;0.000;2023-09-30T08:47:26;99666.09;;;23.35;51.31
78573;BME280;67862;0.000;0.000;2023-09-30T08:49:53;99669.13;;;23.33;51.06
78573;BME280;67862;0.000;0.000;2023-09-30T08:52:22;99664.47;;;23.34;51.42
78573;BME280;67862;0.000;0.000;2023-09-30T08:54:48;99656.25;;;23.34;51.14
78573;BME280;67862;0.000;0.000;2023-09-30T08:59:38;99661.19;;;23.32;50.91
78573;BME280;67862;0.000;0.000;2023-09-30T09:02:12;99658.75;;;23.30;50.54
78573;BME280;67862;0.000;0.000;2023-09-30T09:04:38;99652.47;;;23.30;50.58
78573;BME280;67862;0.000;0.000;2023-09-30T09:07:04;99656.31;;;23.29;49.93
78573;BME280;67862;0.000;0.000;2023-09-30T09:09:32;99655.50;;;23.28;50.28
78573;BME280;67862;0.000;0.000;2023-09-30T09:11:57;99652.75;;;23.28;49.64
78573;BME280;67862;0.000;0.000;2023-09-30T09:17:11;99657.44;;;23.28;49.77
78573;BME280;67862;0.000;0.000;2023-09-30T09:19:37;99651.41;;;23.26;50.05
78573;BME280;67862;0.000;0.000;2023-09-30T09:22:03;99653.06;;;23.27;49.86
78573;BME280;67862;0.000;0.000;2023-09-30T09:24:35;99655.00;;;23.26;49.66
78573;BME280;67862;0.000;0.000;2023-09-30T09:27:13;99646.22;;;23.24;49.13
78573;BME280;67862;0.000;0.000;2023-09-30T09:29:42;99653.63;;;23.24;48.72
78573;BME280;67862;0.000;0.000;2023-09-30T09:32:17;99646.50;;;23.23;49.43
78573;BME280;67862;0.000;0.000;2023-09-30T09:34:43;99646.50;;;23.23;49.25
78573;BME280;67862;0.000;0.000;2023-09-30T09:37:12;99638.28;;;23.23;49.05
78573;BME280;67862;0.000;0.000;2023-09-30T09:39:38;99641.34;;;23.21;48.82
78573;BME280;67862;0.000;0.000;2023-09-30T09:42:03;99637.47;;;23.22;48.70
78573;BME280;67862;0.000;0.000;2023-09-30T09:44:28;99634.75;;;23.22;48.58
78573;BME280;67862;0.000;0.000;2023-09-30T09:46:54;99633.94;;;23.22;48.62
78573;BME280;67862;0.000;0.000;2023-09-30T09:49:22;99623.78;;;23.22;48.71
78573;BME280;67862;0.000;0.000;2023-09-30T09:51:50;99624.09;;;23.21;49.22
78573;BME280;67862;0.000;0.000;2023-09-30T09:54:17;99626.81;;;23.21;48.74
78573;BME280;67862;0.000;0.000;2023-09-30T09:56:46;99633.94;;;23.22;49.08
78573;BME280;67862;0.000;0.000;2023-09-30T09:59:11;99630.06;;;23.23;49.09
78573;BME280;67862;0.000;0.000;2023-09-30T10:01:40;99628.44;;;23.22;48.75
78573;BME280;67862;0.000;0.000;2023-09-30T10:04:06;99626.81;;;23.21;49.08
78573;BME280;67862;0.000;0.000;2023-09-30T10:06:32;99630.66;;;23.20;48.92
78573;BME280;67862;0.000;0.000;2023-09-30T10:09:05;99635.03;;;23.21;49.03
78573;BME280;67862;0.000;0.000;2023-09-30T10:11:32;99630.66;;;23.20;48.69
78573;BME280;67862;0.000;0.000;2023-09-30T10:13:58;99627.94;;;23.20;48.68
78573;BME280;67862;0.000;0.000;2023-09-30T10:19:21;99619.19;;;23.18;48.40
78573;BME280;67862;0.000;0.000;2023-09-30T10:24:33;99619.19;;;23.18;48.53
78573;BME280;67862;0.000;0.000;2023-09-30T10:29:44;99622.50;;;23.14;47.66
78573;BME280;67862;0.000;0.000;2023-09-30T10:32:13;99612.13;;;23.11;47.47
78573;BME280;67862;0.000;0.000;2023-09-30T10:34:39;99625.31;;;23.09;47.81
78573;BME280;67862;0.000;0.000;2023-09-30T10:37:22;99622.31;;;23.06;47.21
78573;BME280;67862;0.000;0.000;2023-09-30T10:40:00;99619.13;;;22.99;47.34
78573;BME280;67862;0.000;0.000;2023-09-30T10:48:31;99610.66;;;22.95;47.47
78573;BME280;67862;0.000;0.000;2023-09-30T10:50:52;99611.78;;;22.94;46.87
78573;BME280;67862;0.000;0.000;2023-09-30T10:53:19;99612.66;;;22.90;46.60
78573;BME280;67862;0.000;0.000;2023-09-30T10:55:46;99603.09;;;22.87;47.10
78573;BME280;67862;0.000;0.000;2023-09-30T10:58:14;99606.66;;;22.88;46.94
78573;BME280;67862;0.000;0.000;2023-09-30T11:00:52;99603.63;;;22.89;47.68
78573;BME280;67862;0.000;0.000;2023-09-30T11:03:24;99613.19;;;22.92;47.81
78573;BME280;67862;0.000;0.000;2023-09-30T11:05:50;99613.69;;;22.94;48.06
78573;BME280;67862;0.000;0.000;2023-09-30T11:08:24;99607.13;;;22.95;48.28
78573;BME280;67862;0.000;0.000;2023-09-30T11:10:52;99607.94;;;22.95;47.98
78573;BME280;67862;0.000;0.000;2023-09-30T11:13:19;99607.94;;;22.95;48.16
78573;BME280;67862;0.000;0.000;2023-09-30T11:15:46;99612.28;;;22.96;48.61
78573;BME280;67862;0.000;0.000;2023-09-30T11:18:22;99604.91;;;22.97;48.63
78573;BME280;67862;0.000;0.000;2023-09-30T11:20:48;99593.13;;;22.96;48.28
78573;BME280;67862;0.000;0.000;2023-09-30T11:23:15;99600.25;;;22.97;48.64
78573;BME280;67862;0.000;0.000;2023-09-30T11:25:40;99602.72;;;22.99;48.44
78573;BME280;67862;0.000;0.000;2023-09-30T11:28:19;99599.66;;;23.00;48.72
78573;BME280;67862;0.000;0.000;2023-09-30T11:30:58;99605.16;;;23.00;49.07
78573;BME280;67862;0.000;0.000;2023-09-30T11:33:28;99604.03;;;23.01;48.86
78573;BME280;67862;0.000;0.000;2023-09-30T11:36:07;99596.63;;;23.02;48.75
78573;BME280;67862;0.000;0.000;2023-09-30T11:38:34;99600.19;;;23.02;48.83
78573;BME280;67862;0.000;0.000;2023-09-30T11:41:16;99598.25;;;23.03;49.08
78573;BME280;67862;0.000;0.000;2023-09-30T11:43:58;99603.44;;;23.04;48.85
78573;BME280;67862;0.000;0.000;2023-09-30T11:46:57;99602.34;;;23.05;49.13
78573;BME280;67862;0.000;0.000;2023-09-30T11:49:31;99598.50;;;23.06;49.21
78573;BME280;67862;0.000;0.000;2023-09-30T11:52:00;99600.16;;;23.07;49.62
78573;BME280;67862;0.000;0.000;2023-09-30T11:54:29;99599.03;;;23.08;49.29
78573;BME280;67862;0.000;0.000;2023-09-30T11:56:58;99596.31;;;23.08;49.40
78573;BME280;67862;0.000;0.000;2023-09-30T11:59:24;99595.19;;;23.09;49.36
78573;BME280;67862;0.000;0.000;2023-09-30T12:01:49;99597.94;;;23.09;49.53
78573;BME280;67862;0.000;0.000;2023-09-30T12:04:16;99599.56;;;23.10;49.83
78573;BME280;67862;0.000;0.000;2023-09-30T12:06:44;99600.06;;;23.12;50.29
78573;BME280;67862;0.000;0.000;2023-09-30T12:09:09;99598.16;;;23.13;50.18
78573;BME280;67862;0.000;0.000;2023-09-30T12:11:39;99595.13;;;23.14;50.35
78573;BME280;67862;0.000;0.000;2023-09-30T12:14:04;99591.25;;;23.16;50.28
78573;BME280;67862;0.000;0.000;2023-09-30T12:16:29;99591.00;;;23.17;50.72
78573;BME280;67862;0.000;0.000;2023-09-30T12:18:55;99589.88;;;23.18;50.65
78573;BME280;67862;0.000;0.000;2023-09-30T12:21:21;99590.69;;;23.19;50.68
78573;BME280;67862;0.000;0.000;2023-09-30T12:23:47;99592.31;;;23.20;51.24
78573;BME280;67862;0.000;0.000;2023-09-30T12:26:13;99592.03;;;23.21;50.97
78573;BME280;67862;0.000;0.000;2023-09-30T12:28:39;99587.66;;;23.20;51.52
78573;BME280;67862;0.000;0.000;2023-09-30T12:31:06;99589.28;;;23.21;51.62
78573;BME280;67862;0.000;0.000;2023-09-30T12:33:31;99583.00;;;23.21;51.50
78573;BME280;67862;0.000;0.000;2023-09-30T12:35:59;99591.22;;;23.21;51.83
78573;BME280;67862;0.000;0.000;2023-09-30T12:38:25;99588.47;;;23.21;51.82
78573;BME280;67862;0.000;0.000;2023-09-30T12:40:52;99592.84;;;23.22;52.02
78573;BME280;67862;0.000;0.000;2023-09-30T12:43:18;99596.69;;;23.21;52.01
78573;BME280;67862;0.000;0.000;2023-09-30T12:45:45;99600.25;;;23.21;51.57
78573;BME280;67862;0.000;0.000;2023-09-30T12:48:10;99601.06;;;23.22;51.61
78573;BME280;67862;0.000;0.000;2023-09-30T12:50:36;99597.50;;;23.21;51.99
78573;BME280;67862;0.000;0.000;2023-09-30T12:53:01;99596.41;;;23.22;51.67
78573;BME280;67862;0.000;0.000;2023-09-30T12:55:27;99595.59;;;23.22;51.83
78573;BME280;67862;0.000;0.000;2023-09-30T12:57:52;99604.63;;;23.22;51.81
78573;BME280;67862;0.000;0.000;2023-09-30T13:00:18;99608.16;;;23.23;52.06
78573;BME280;67862;0.000;0.000;2023-09-30T13:02:45;99599.94;;;23.23;51.79
78573;BME280;67862;0.000;0.000;2023-09-30T13:05:17;99596.41;;;23.22;52.15
78573;BME280;67862;0.000;0.000;2023-09-30T13:07:43;99594.47;;;23.23;52.21
78573;BME280;67862;0.000;0.000;2023-09-30T13:10:08;99598.03;;;23.23;51.79
78573;BME280;67862;0.000;0.000;2023-09-30T13:12:34;99604.31;;;23.24;51.85
78573;BME280;67862;0.000;0.000;2023-09-30T13:15:00;99604.31;;;23.24;51.90
78573;BME280;67862;0.000;0.000;2023-09-30T13:17:28;99607.06;;;23.24;52.16
78573;BME280;67862;0.000;0.000;2023-09-30T13:19:54;99599.66;;;23.24;52.15
78573;BME280;67862;0.000;0.000;2023-09-30T13:22:19;99604.03;;;23.25;51.97
78573;BME280;67862;0.000;0.000;2023-09-30T13:24:45;99593.38;;;23.24;52.34
78573;BME280;67862;0.000;0.000;2023-09-30T13:27:10;99592.25;;;23.25;52.21
78573;BME280;67862;0.000;0.000;2023-09-30T13:29:36;99592.25;;;23.25;52.11
78573;BME280;67862;0.000;0.000;2023-09-30T13:32:01;99592.25;;;23.25;52.41
78573;BME280;67862;0.000;0.000;2023-09-30T13:34:27;99591.13;;;23.26;52.12
78573;BME280;67862;0.000;0.000;2023-09-30T13:36:54;99590.31;;;23.25;52.54